sensor_id;sensor_type;location;lat;lon;timestamp;temperature;humidity
65884;HTU21D;52663;51.038;5.858;2022-10-17T00:02:01;17.82;76.44
65884;HTU21D;52663;51.038;5.858;2022-10-17T00:04:29;17.83;76.34
65884;HTU21D;52663;51.038;5.858;2022-10-17T00:06:55;17.82;76.26
65884;HTU21D;52663;51.038;5.858;2022-10-17T00:09:20;17.83;76.28
65884;HTU21D;52663;51.038;5.858;2022-10-17T00:11:46;17.81;76.38
65884;HTU21D;52663;51.038;5.858;2022-10-17T00:14:12;17.79;76.31
65884;HTU21D;52663;51.038;5.858;2022-10-17T00:16:38;17.74;76.39
65884;HTU21D;52663;51.038;5.858;2022-10-17T00:19:05;17.70;76.56
65884;HTU21D;52663;51.038;5.858;2022-10-17T00:21:32;17.69;76.53
65884;HTU21D;52663;51.038;5.858;2022-10-17T00:23:59;17.69;76.50
65884;HTU21D;52663;51.038;5.858;2022-10-17T00:26:26;17.69;76.50
65884;HTU21D;52663;51.038;5.858;2022-10-17T00:28:54;17.63;76.60
65884;HTU21D;52663;51.038;5.858;2022-10-17T00:31:22;17.61;76.76
65884;HTU21D;52663;51.038;5.858;2022-10-17T00:33:49;17.60;76.86
65884;HTU21D;52663;51.038;5.858;2022-10-17T00:36:18;17.56;76.96
65884;HTU21D;52663;51.038;5.858;2022-10-17T00:38:46;17.54;76.96
65884;HTU21D;52663;51.038;5.858;2022-10-17T00:41:17;17.52;77.00
65884;HTU21D;52663;51.038;5.858;2022-10-17T00:44:05;17.53;76.98
65884;HTU21D;52663;51.038;5.858;2022-10-17T00:46:35;17.52;76.90
65884;HTU21D;52663;51.038;5.858;2022-10-17T00:49:06;17.53;76.85
65884;HTU21D;52663;51.038;5.858;2022-10-17T00:51:59;17.54;76.79
65884;HTU21D;52663;51.038;5.858;2022-10-17T00:54:34;17.55;76.69
65884;HTU21D;52663;51.038;5.858;2022-10-17T00:57:05;17.54;76.59
65884;HTU21D;52663;51.038;5.858;2022-10-17T00:59:35;17.54;76.45
65884;HTU21D;52663;51.038;5.858;2022-10-17T01:02:06;17.54;76.26
65884;HTU21D;52663;51.038;5.858;2022-10-17T01:04:32;17.52;76.26
65884;HTU21D;52663;51.038;5.858;2022-10-17T01:07:22;17.49;76.29
65884;HTU21D;52663;51.038;5.858;2022-10-17T01:09:49;17.47;76.35
65884;HTU21D;52663;51.038;5.858;2022-10-17T01:12:24;17.44;76.37
65884;HTU21D;52663;51.038;5.858;2022-10-17T01:17:52;17.34;76.49
65884;HTU21D;52663;51.038;5.858;2022-10-17T01:20:41;17.31;76.57
65884;HTU21D;52663;51.038;5.858;2022-10-17T01:26:39;17.28;76.72
65884;HTU21D;52663;51.038;5.858;2022-10-17T01:31:54;17.30;76.69
65884;HTU21D;52663;51.038;5.858;2022-10-17T01:34:27;17.29;76.76
65884;HTU21D;52663;51.038;5.858;2022-10-17T01:37:03;17.30;76.65
65884;HTU21D;52663;51.038;5.858;2022-10-17T01:40:02;17.30;76.47
65884;HTU21D;52663;51.038;5.858;2022-10-17T01:42:52;17.28;76.63
65884;HTU21D;52663;51.038;5.858;2022-10-17T01:45:43;17.25;76.76
65884;HTU21D;52663;51.038;5.858;2022-10-17T01:48:27;17.25;76.73
65884;HTU21D;52663;51.038;5.858;2022-10-17T01:51:01;17.28;76.67
65884;HTU21D;52663;51.038;5.858;2022-10-17T01:53:39;17.29;76.61
65884;HTU21D;52663;51.038;5.858;2022-10-17T01:56:09;17.29;76.56
65884;HTU21D;52663;51.038;5.858;2022-10-17T01:58:48;17.31;76.62
65884;HTU21D;52663;51.038;5.858;2022-10-17T02:01:18;17.31;76.72
65884;HTU21D;52663;51.038;5.858;2022-10-17T02:03:49;17.33;77.11
65884;HTU21D;52663;51.038;5.858;2022-10-17T02:06:15;17.34;77.42
65884;HTU21D;52663;51.038;5.858;2022-10-17T02:08:47;17.38;77.98
65884;HTU21D;52663;51.038;5.858;2022-10-17T02:11:18;17.43;78.49
65884;HTU21D;52663;51.038;5.858;2022-10-17T02:30:32;17.89;80.98
65884;HTU21D;52663;51.038;5.858;2022-10-17T02:33:24;17.96;80.88
65884;HTU21D;52663;51.038;5.858;2022-10-17T02:36:00;18.03;80.77
65884;HTU21D;52663;51.038;5.858;2022-10-17T02:38:30;18.06;80.68
65884;HTU21D;52663;51.038;5.858;2022-10-17T02:41:00;18.09;80.59
65884;HTU21D;52663;51.038;5.858;2022-10-17T02:43:28;18.14;80.41
65884;HTU21D;52663;51.038;5.858;2022-10-17T02:45:56;18.17;80.38
65884;HTU21D;52663;51.038;5.858;2022-10-17T02:48:41;18.18;80.33
65884;HTU21D;52663;51.038;5.858;2022-10-17T02:51:41;18.22;80.21
65884;HTU21D;52663;51.038;5.858;2022-10-17T02:54:32;18.24;80.07
65884;HTU21D;52663;51.038;5.858;2022-10-17T02:57:13;18.25;79.95
65884;HTU21D;52663;51.038;5.858;2022-10-17T02:59:44;18.26;79.82
65884;HTU21D;52663;51.038;5.858;2022-10-17T03:02:11;18.27;79.86
65884;HTU21D;52663;51.038;5.858;2022-10-17T03:04:37;18.30;79.78
65884;HTU21D;52663;51.038;5.858;2022-10-17T03:07:08;18.34;79.61
65884;HTU21D;52663;51.038;5.858;2022-10-17T03:09:34;18.36;79.51
65884;HTU21D;52663;51.038;5.858;2022-10-17T03:11:59;18.38;79.33
65884;HTU21D;52663;51.038;5.858;2022-10-17T03:14:25;18.40;79.11
65884;HTU21D;52663;51.038;5.858;2022-10-17T03:16:51;18.42;78.92
65884;HTU21D;52663;51.038;5.858;2022-10-17T03:19:18;18.41;78.81
65884;HTU21D;52663;51.038;5.858;2022-10-17T03:21:43;18.39;78.68
65884;HTU21D;52663;51.038;5.858;2022-10-17T03:24:10;18.37;78.72
65884;HTU21D;52663;51.038;5.858;2022-10-17T03:26:36;18.35;78.80
65884;HTU21D;52663;51.038;5.858;2022-10-17T03:29:02;18.36;78.79
65884;HTU21D;52663;51.038;5.858;2022-10-17T03:31:29;18.38;78.66
65884;HTU21D;52663;51.038;5.858;2022-10-17T03:33:55;18.39;78.50
65884;HTU21D;52663;51.038;5.858;2022-10-17T03:36:21;18.39;78.35
65884;HTU21D;52663;51.038;5.858;2022-10-17T03:38:54;18.36;78.36
65884;HTU21D;52663;51.038;5.858;2022-10-17T03:41:30;18.36;78.30
65884;HTU21D;52663;51.038;5.858;2022-10-17T03:43:57;18.32;78.13
65884;HTU21D;52663;51.038;5.858;2022-10-17T03:46:37;18.30;78.01
65884;HTU21D;52663;51.038;5.858;2022-10-17T03:49:08;18.27;78.07
65884;HTU21D;52663;51.038;5.858;2022-10-17T03:51:37;18.27;78.11
65884;HTU21D;52663;51.038;5.858;2022-10-17T03:54:10;18.27;78.18
65884;HTU21D;52663;51.038;5.858;2022-10-17T03:56:36;18.28;78.30
65884;HTU21D;52663;51.038;5.858;2022-10-17T03:59:25;18.29;78.44
65884;HTU21D;52663;51.038;5.858;2022-10-17T04:06:20;18.38;78.29
65884;HTU21D;52663;51.038;5.858;2022-10-17T04:09:12;18.41;78.21
65884;HTU21D;52663;51.038;5.858;2022-10-17T04:11:51;18.44;78.11
65884;HTU21D;52663;51.038;5.858;2022-10-17T04:14:20;18.48;78.07
65884;HTU21D;52663;51.038;5.858;2022-10-17T04:16:49;18.50;77.97
65884;HTU21D;52663;51.038;5.858;2022-10-17T04:19:19;18.51;77.78
65884;HTU21D;52663;51.038;5.858;2022-10-17T04:21:46;18.51;77.91
65884;HTU21D;52663;51.038;5.858;2022-10-17T04:24:13;18.53;77.95
65884;HTU21D;52663;51.038;5.858;2022-10-17T04:27:10;18.51;78.27
65884;HTU21D;52663;51.038;5.858;2022-10-17T04:29:40;18.55;78.37
65884;HTU21D;52663;51.038;5.858;2022-10-17T04:32:13;18.63;78.18
65884;HTU21D;52663;51.038;5.858;2022-10-17T04:34:43;18.69;78.02
65884;HTU21D;52663;51.038;5.858;2022-10-17T04:37:12;18.73;77.84
65884;HTU21D;52663;51.038;5.858;2022-10-17T04:39:38;18.78;77.71
65884;HTU21D;52663;51.038;5.858;2022-10-17T04:42:04;18.80;77.74
65884;HTU21D;52663;51.038;5.858;2022-10-17T04:44:30;18.83;77.55
65884;HTU21D;52663;51.038;5.858;2022-10-17T04:46:58;18.85;77.40
65884;HTU21D;52663;51.038;5.858;2022-10-17T04:49:24;18.87;77.34
65884;HTU21D;52663;51.038;5.858;2022-10-17T04:51:53;18.91;77.20
65884;HTU21D;52663;51.038;5.858;2022-10-17T04:54:47;18.88;77.13
65884;HTU21D;52663;51.038;5.858;2022-10-17T04:57:16;18.87;77.13
65884;HTU21D;52663;51.038;5.858;2022-10-17T04:59:51;18.85;77.15
65884;HTU21D;52663;51.038;5.858;2022-10-17T05:02:25;18.82;77.11
65884;HTU21D;52663;51.038;5.858;2022-10-17T05:04:51;18.77;77.37
65884;HTU21D;52663;51.038;5.858;2022-10-17T05:07:18;18.76;77.37
65884;HTU21D;52663;51.038;5.858;2022-10-17T05:09:47;18.77;77.38
65884;HTU21D;52663;51.038;5.858;2022-10-17T05:12:13;18.76;77.28
65884;HTU21D;52663;51.038;5.858;2022-10-17T05:14:43;18.73;77.44
65884;HTU21D;52663;51.038;5.858;2022-10-17T05:17:08;18.76;77.45
65884;HTU21D;52663;51.038;5.858;2022-10-17T05:19:34;18.77;77.41
65884;HTU21D;52663;51.038;5.858;2022-10-17T05:22:00;18.78;77.34
65884;HTU21D;52663;51.038;5.858;2022-10-17T05:24:30;18.81;77.23
65884;HTU21D;52663;51.038;5.858;2022-10-17T05:26:58;18.82;77.15
65884;HTU21D;52663;51.038;5.858;2022-10-17T05:29:24;18.82;77.06
65884;HTU21D;52663;51.038;5.858;2022-10-17T05:31:56;18.86;76.93
65884;HTU21D;52663;51.038;5.858;2022-10-17T05:34:22;18.89;76.83
65884;HTU21D;52663;51.038;5.858;2022-10-17T05:36:49;18.91;76.70
65884;HTU21D;52663;51.038;5.858;2022-10-17T05:39:19;18.95;76.54
65884;HTU21D;52663;51.038;5.858;2022-10-17T05:41:45;18.96;76.45
65884;HTU21D;52663;51.038;5.858;2022-10-17T05:44:11;18.95;76.45
65884;HTU21D;52663;51.038;5.858;2022-10-17T05:46:41;18.95;76.48
65884;HTU21D;52663;51.038;5.858;2022-10-17T05:49:09;18.97;76.41
65884;HTU21D;52663;51.038;5.858;2022-10-17T05:51:35;18.97;76.31
65884;HTU21D;52663;51.038;5.858;2022-10-17T05:54:04;19.01;76.25
65884;HTU21D;52663;51.038;5.858;2022-10-17T05:56:30;19.01;76.15
65884;HTU21D;52663;51.038;5.858;2022-10-17T05:58:56;19.06;76.08
65884;HTU21D;52663;51.038;5.858;2022-10-17T06:01:32;19.07;75.89
65884;HTU21D;52663;51.038;5.858;2022-10-17T06:03:58;19.08;75.76
65884;HTU21D;52663;51.038;5.858;2022-10-17T06:06:24;19.10;75.73
65884;HTU21D;52663;51.038;5.858;2022-10-17T06:08:52;19.12;75.63
65884;HTU21D;52663;51.038;5.858;2022-10-17T06:11:24;19.13;75.57
65884;HTU21D;52663;51.038;5.858;2022-10-17T06:13:50;19.13;75.51
65884;HTU21D;52663;51.038;5.858;2022-10-17T06:16:21;19.13;75.51
65884;HTU21D;52663;51.038;5.858;2022-10-17T06:18:47;19.13;75.44
65884;HTU21D;52663;51.038;5.858;2022-10-17T06:21:16;19.14;75.31
65884;HTU21D;52663;51.038;5.858;2022-10-17T06:23:45;19.14;75.27
65884;HTU21D;52663;51.038;5.858;2022-10-17T06:26:20;19.16;75.14
65884;HTU21D;52663;51.038;5.858;2022-10-17T06:28:47;19.18;75.05
65884;HTU21D;52663;51.038;5.858;2022-10-17T06:31:15;19.18;74.99
65884;HTU21D;52663;51.038;5.858;2022-10-17T06:33:42;19.18;74.92
65884;HTU21D;52663;51.038;5.858;2022-10-17T06:36:11;19.18;74.89
65884;HTU21D;52663;51.038;5.858;2022-10-17T06:38:37;19.18;74.87
65884;HTU21D;52663;51.038;5.858;2022-10-17T06:41:13;19.20;74.88
65884;HTU21D;52663;51.038;5.858;2022-10-17T06:43:41;19.18;74.83
65884;HTU21D;52663;51.038;5.858;2022-10-17T06:46:26;19.22;74.72
65884;HTU21D;52663;51.038;5.858;2022-10-17T06:48:59;19.23;74.60
65884;HTU21D;52663;51.038;5.858;2022-10-17T06:51:43;19.27;74.49
65884;HTU21D;52663;51.038;5.858;2022-10-17T06:54:12;19.30;74.47
65884;HTU21D;52663;51.038;5.858;2022-10-17T06:57:10;19.31;74.37
65884;HTU21D;52663;51.038;5.858;2022-10-17T06:59:44;19.31;74.33
65884;HTU21D;52663;51.038;5.858;2022-10-17T07:02:16;19.32;74.25
65884;HTU21D;52663;51.038;5.858;2022-10-17T07:04:45;19.36;74.19
65884;HTU21D;52663;51.038;5.858;2022-10-17T07:07:11;19.37;74.06
65884;HTU21D;52663;51.038;5.858;2022-10-17T07:09:37;19.39;73.97
65884;HTU21D;52663;51.038;5.858;2022-10-17T07:12:11;19.43;73.88
65884;HTU21D;52663;51.038;5.858;2022-10-17T07:14:47;19.41;73.82
65884;HTU21D;52663;51.038;5.858;2022-10-17T07:17:18;19.43;73.71
65884;HTU21D;52663;51.038;5.858;2022-10-17T07:19:45;19.45;73.69
65884;HTU21D;52663;51.038;5.858;2022-10-17T07:22:11;19.48;73.56
65884;HTU21D;52663;51.038;5.858;2022-10-17T07:24:41;19.51;73.47
65884;HTU21D;52663;51.038;5.858;2022-10-17T07:27:15;19.55;73.36
65884;HTU21D;52663;51.038;5.858;2022-10-17T07:29:41;19.60;73.16
65884;HTU21D;52663;51.038;5.858;2022-10-17T07:32:16;19.63;73.03
65884;HTU21D;52663;51.038;5.858;2022-10-17T07:34:41;19.69;72.90
65884;HTU21D;52663;51.038;5.858;2022-10-17T07:37:09;19.79;72.58
65884;HTU21D;52663;51.038;5.858;2022-10-17T07:39:36;19.82;72.43
65884;HTU21D;52663;51.038;5.858;2022-10-17T07:42:04;19.88;72.18
65884;HTU21D;52663;51.038;5.858;2022-10-17T07:44:32;19.89;71.94
65884;HTU21D;52663;51.038;5.858;2022-10-17T07:47:01;19.97;71.91
65884;HTU21D;52663;51.038;5.858;2022-10-17T07:49:35;20.04;71.46
65884;HTU21D;52663;51.038;5.858;2022-10-17T07:52:11;20.14;71.06
65884;HTU21D;52663;51.038;5.858;2022-10-17T07:54:37;20.20;70.91
65884;HTU21D;52663;51.038;5.858;2022-10-17T07:57:04;20.29;70.62
65884;HTU21D;52663;51.038;5.858;2022-10-17T07:59:32;20.37;70.55
65884;HTU21D;52663;51.038;5.858;2022-10-17T08:01:58;20.51;70.06
65884;HTU21D;52663;51.038;5.858;2022-10-17T08:04:25;20.65;69.51
65884;HTU21D;52663;51.038;5.858;2022-10-17T08:06:51;20.76;68.87
65884;HTU21D;52663;51.038;5.858;2022-10-17T08:09:18;20.85;68.64
65884;HTU21D;52663;51.038;5.858;2022-10-17T08:11:44;20.93;68.46
65884;HTU21D;52663;51.038;5.858;2022-10-17T08:14:11;21.00;68.17
65884;HTU21D;52663;51.038;5.858;2022-10-17T08:16:40;21.05;67.88
65884;HTU21D;52663;51.038;5.858;2022-10-17T08:19:06;21.05;67.19
65884;HTU21D;52663;51.038;5.858;2022-10-17T08:21:34;21.01;67.51
65884;HTU21D;52663;51.038;5.858;2022-10-17T08:24:00;21.04;67.59
65884;HTU21D;52663;51.038;5.858;2022-10-17T08:26:28;21.15;67.49
65884;HTU21D;52663;51.038;5.858;2022-10-17T08:28:54;21.24;66.96
65884;HTU21D;52663;51.038;5.858;2022-10-17T08:31:37;21.40;67.10
65884;HTU21D;52663;51.038;5.858;2022-10-17T08:34:03;21.52;66.30
65884;HTU21D;52663;51.038;5.858;2022-10-17T08:36:29;21.67;66.00
65884;HTU21D;52663;51.038;5.858;2022-10-17T08:38:55;21.84;65.78
65884;HTU21D;52663;51.038;5.858;2022-10-17T08:44:47;21.91;64.86
65884;HTU21D;52663;51.038;5.858;2022-10-17T08:47:33;21.85;64.95
65884;HTU21D;52663;51.038;5.858;2022-10-17T08:50:03;21.79;65.16
65884;HTU21D;52663;51.038;5.858;2022-10-17T08:52:56;21.74;65.30
65884;HTU21D;52663;51.038;5.858;2022-10-17T08:55:40;21.73;65.49
65884;HTU21D;52663;51.038;5.858;2022-10-17T08:58:22;21.72;65.59
65884;HTU21D;52663;51.038;5.858;2022-10-17T09:04:32;21.72;65.81
65884;HTU21D;52663;51.038;5.858;2022-10-17T09:07:09;21.72;65.90
65884;HTU21D;52663;51.038;5.858;2022-10-17T09:09:48;21.72;66.01
65884;HTU21D;52663;51.038;5.858;2022-10-17T09:12:36;21.67;66.21
65884;HTU21D;52663;51.038;5.858;2022-10-17T09:18:02;21.58;66.30
65884;HTU21D;52663;51.038;5.858;2022-10-17T09:20:53;21.51;66.54
65884;HTU21D;52663;51.038;5.858;2022-10-17T09:23:26;21.47;66.66
65884;HTU21D;52663;51.038;5.858;2022-10-17T09:25:57;21.38;67.18
65884;HTU21D;52663;51.038;5.858;2022-10-17T09:28:34;21.35;67.44
65884;HTU21D;52663;51.038;5.858;2022-10-17T09:31:05;21.32;67.64
65884;HTU21D;52663;51.038;5.858;2022-10-17T09:33:42;21.35;67.68
65884;HTU21D;52663;51.038;5.858;2022-10-17T09:36:16;21.34;67.55
65884;HTU21D;52663;51.038;5.858;2022-10-17T09:39:00;21.36;67.61
65884;HTU21D;52663;51.038;5.858;2022-10-17T09:41:46;21.42;67.56
65884;HTU21D;52663;51.038;5.858;2022-10-17T09:49:37;21.82;66.64
65884;HTU21D;52663;51.038;5.858;2022-10-17T09:52:08;21.90;66.38
65884;HTU21D;52663;51.038;5.858;2022-10-17T09:54:42;21.95;66.06
65884;HTU21D;52663;51.038;5.858;2022-10-17T09:57:10;21.93;65.77
65884;HTU21D;52663;51.038;5.858;2022-10-17T09:59:43;21.87;65.72
65884;HTU21D;52663;51.038;5.858;2022-10-17T10:02:21;21.82;66.00
65884;HTU21D;52663;51.038;5.858;2022-10-17T10:07:24;21.79;65.83
65884;HTU21D;52663;51.038;5.858;2022-10-17T10:09:53;21.77;65.51
65884;HTU21D;52663;51.038;5.858;2022-10-17T10:12:24;21.69;65.52
65884;HTU21D;52663;51.038;5.858;2022-10-17T10:14:57;21.59;65.98
65884;HTU21D;52663;51.038;5.858;2022-10-17T10:17:39;21.50;66.61
65884;HTU21D;52663;51.038;5.858;2022-10-17T10:20:31;21.36;68.24
65884;HTU21D;52663;51.038;5.858;2022-10-17T10:25:35;20.95;70.91
65884;HTU21D;52663;51.038;5.858;2022-10-17T10:28:10;20.83;71.58
65884;HTU21D;52663;51.038;5.858;2022-10-17T10:30:37;20.72;72.16
65884;HTU21D;52663;51.038;5.858;2022-10-17T10:33:02;20.70;72.72
65884;HTU21D;52663;51.038;5.858;2022-10-17T10:35:36;20.72;72.96
65884;HTU21D;52663;51.038;5.858;2022-10-17T10:38:12;20.76;73.06
65884;HTU21D;52663;51.038;5.858;2022-10-17T10:40:55;20.84;72.60
65884;HTU21D;52663;51.038;5.858;2022-10-17T10:43:41;20.89;72.42
65884;HTU21D;52663;51.038;5.858;2022-10-17T10:48:58;20.99;72.23
65884;HTU21D;52663;51.038;5.858;2022-10-17T10:54:04;20.99;71.89
65884;HTU21D;52663;51.038;5.858;2022-10-17T10:56:41;20.98;71.96
65884;HTU21D;52663;51.038;5.858;2022-10-17T10:59:36;20.98;72.06
65884;HTU21D;52663;51.038;5.858;2022-10-17T11:02:08;20.95;72.12
65884;HTU21D;52663;51.038;5.858;2022-10-17T11:04:48;21.00;72.19
65884;HTU21D;52663;51.038;5.858;2022-10-17T11:10:24;20.92;71.88
65884;HTU21D;52663;51.038;5.858;2022-10-17T11:16:20;20.88;71.76
65884;HTU21D;52663;51.038;5.858;2022-10-17T11:26:37;20.57;73.64
65884;HTU21D;52663;51.038;5.858;2022-10-17T11:29:05;20.45;74.12
65884;HTU21D;52663;51.038;5.858;2022-10-17T11:31:45;20.44;74.54
65884;HTU21D;52663;51.038;5.858;2022-10-17T11:34:22;20.40;74.54
65884;HTU21D;52663;51.038;5.858;2022-10-17T11:37:04;20.43;74.44
65884;HTU21D;52663;51.038;5.858;2022-10-17T11:42:35;20.51;74.34
65884;HTU21D;52663;51.038;5.858;2022-10-17T11:45:12;20.57;73.93
65884;HTU21D;52663;51.038;5.858;2022-10-17T11:47:45;20.57;73.86
65884;HTU21D;52663;51.038;5.858;2022-10-17T11:50:23;20.60;74.03
65884;HTU21D;52663;51.038;5.858;2022-10-17T11:52:58;20.63;74.19
65884;HTU21D;52663;51.038;5.858;2022-10-17T11:55:27;20.70;73.75
65884;HTU21D;52663;51.038;5.858;2022-10-17T11:58:11;20.70;73.58
65884;HTU21D;52663;51.038;5.858;2022-10-17T12:00:55;20.73;73.54
65884;HTU21D;52663;51.038;5.858;2022-10-17T12:06:16;20.79;73.27
65884;HTU21D;52663;51.038;5.858;2022-10-17T12:11:50;20.91;72.83
65884;HTU21D;52663;51.038;5.858;2022-10-17T12:14:42;20.98;72.73
65884;HTU21D;52663;51.038;5.858;2022-10-17T12:23:03;21.03;72.45
65884;HTU21D;52663;51.038;5.858;2022-10-17T12:25:34;20.95;72.68
65884;HTU21D;52663;51.038;5.858;2022-10-17T12:28:10;21.01;72.47
65884;HTU21D;52663;51.038;5.858;2022-10-17T12:33:22;21.02;72.16
65884;HTU21D;52663;51.038;5.858;2022-10-17T12:38:36;20.95;72.28
65884;HTU21D;52663;51.038;5.858;2022-10-17T12:41:03;20.98;72.09
65884;HTU21D;52663;51.038;5.858;2022-10-17T12:46:00;20.98;72.16
65884;HTU21D;52663;51.038;5.858;2022-10-17T12:51:11;20.99;72.10
65884;HTU21D;52663;51.038;5.858;2022-10-17T12:53:56;21.04;71.80
65884;HTU21D;52663;51.038;5.858;2022-10-17T12:56:46;21.02;71.81
65884;HTU21D;52663;51.038;5.858;2022-10-17T12:59:20;21.00;71.97
65884;HTU21D;52663;51.038;5.858;2022-10-17T13:01:51;21.01;71.87
65884;HTU21D;52663;51.038;5.858;2022-10-17T13:04:19;21.05;71.90
65884;HTU21D;52663;51.038;5.858;2022-10-17T13:06:52;21.11;71.75
65884;HTU21D;52663;51.038;5.858;2022-10-17T13:09:29;21.13;71.66
65884;HTU21D;52663;51.038;5.858;2022-10-17T13:12:02;21.17;71.58
65884;HTU21D;52663;51.038;5.858;2022-10-17T13:14:31;21.15;71.64
65884;HTU21D;52663;51.038;5.858;2022-10-17T13:17:05;21.13;71.90
65884;HTU21D;52663;51.038;5.858;2022-10-17T13:19:45;21.11;72.06
65884;HTU21D;52663;51.038;5.858;2022-10-17T13:22:28;21.13;72.25
65884;HTU21D;52663;51.038;5.858;2022-10-17T13:27:33;21.14;72.53
65884;HTU21D;52663;51.038;5.858;2022-10-17T13:30:02;21.21;72.39
65884;HTU21D;52663;51.038;5.858;2022-10-17T13:32:44;21.21;72.29
65884;HTU21D;52663;51.038;5.858;2022-10-17T13:35:16;21.19;72.41
65884;HTU21D;52663;51.038;5.858;2022-10-17T13:37:48;21.28;72.16
65884;HTU21D;52663;51.038;5.858;2022-10-17T13:40:17;21.25;72.08
65884;HTU21D;52663;51.038;5.858;2022-10-17T13:42:43;21.23;72.35
65884;HTU21D;52663;51.038;5.858;2022-10-17T13:45:32;21.30;72.08
65884;HTU21D;52663;51.038;5.858;2022-10-17T13:48:03;21.38;72.03
65884;HTU21D;52663;51.038;5.858;2022-10-17T13:50:39;21.34;72.22
65884;HTU21D;52663;51.038;5.858;2022-10-17T13:55:37;21.34;72.02
65884;HTU21D;52663;51.038;5.858;2022-10-17T13:58:15;21.32;72.09
65884;HTU21D;52663;51.038;5.858;2022-10-17T14:00:44;21.33;72.18
65884;HTU21D;52663;51.038;5.858;2022-10-17T14:03:10;21.29;72.56
65884;HTU21D;52663;51.038;5.858;2022-10-17T14:05:57;21.30;72.38
65884;HTU21D;52663;51.038;5.858;2022-10-17T14:08:23;21.30;72.50
65884;HTU21D;52663;51.038;5.858;2022-10-17T14:10:49;21.34;72.37
65884;HTU21D;52663;51.038;5.858;2022-10-17T14:13:27;21.33;72.37
65884;HTU21D;52663;51.038;5.858;2022-10-17T14:15:58;21.32;72.41
65884;HTU21D;52663;51.038;5.858;2022-10-17T14:18:31;21.23;72.61
65884;HTU21D;52663;51.038;5.858;2022-10-17T14:21:00;21.18;72.98
65884;HTU21D;52663;51.038;5.858;2022-10-17T14:23:33;21.20;73.24
65884;HTU21D;52663;51.038;5.858;2022-10-17T14:26:08;21.10;73.83
65884;HTU21D;52663;51.038;5.858;2022-10-17T14:28:35;21.06;73.88
65884;HTU21D;52663;51.038;5.858;2022-10-17T14:31:23;21.04;74.30
65884;HTU21D;52663;51.038;5.858;2022-10-17T14:33:52;20.94;74.82
65884;HTU21D;52663;51.038;5.858;2022-10-17T14:36:28;20.89;74.90
65884;HTU21D;52663;51.038;5.858;2022-10-17T14:38:54;20.79;75.45
65884;HTU21D;52663;51.038;5.858;2022-10-17T14:41:30;20.75;76.08
65884;HTU21D;52663;51.038;5.858;2022-10-17T14:44:01;20.73;76.33
65884;HTU21D;52663;51.038;5.858;2022-10-17T14:46:28;20.66;77.04
65884;HTU21D;52663;51.038;5.858;2022-10-17T14:49:13;20.66;76.86
65884;HTU21D;52663;51.038;5.858;2022-10-17T14:54:43;20.64;77.23
65884;HTU21D;52663;51.038;5.858;2022-10-17T14:57:16;20.64;77.46
65884;HTU21D;52663;51.038;5.858;2022-10-17T14:59:42;20.57;77.69
65884;HTU21D;52663;51.038;5.858;2022-10-17T15:02:08;20.50;77.89
65884;HTU21D;52663;51.038;5.858;2022-10-17T15:04:34;20.53;78.18
65884;HTU21D;52663;51.038;5.858;2022-10-17T15:07:00;20.48;78.20
65884;HTU21D;52663;51.038;5.858;2022-10-17T15:09:26;20.44;78.75
65884;HTU21D;52663;51.038;5.858;2022-10-17T15:12:01;20.42;78.81
65884;HTU21D;52663;51.038;5.858;2022-10-17T15:14:27;20.32;79.26
65884;HTU21D;52663;51.038;5.858;2022-10-17T15:16:53;20.18;79.70
65884;HTU21D;52663;51.038;5.858;2022-10-17T15:19:19;20.07;79.75
65884;HTU21D;52663;51.038;5.858;2022-10-17T15:21:45;20.00;80.30
65884;HTU21D;52663;51.038;5.858;2022-10-17T15:24:10;19.97;80.38
65884;HTU21D;52663;51.038;5.858;2022-10-17T15:26:36;19.96;80.72
65884;HTU21D;52663;51.038;5.858;2022-10-17T15:29:03;19.96;80.72
65884;HTU21D;52663;51.038;5.858;2022-10-17T15:31:33;19.94;80.51
65884;HTU21D;52663;51.038;5.858;2022-10-17T15:34:03;19.91;80.35
65884;HTU21D;52663;51.038;5.858;2022-10-17T15:36:40;19.88;80.34
65884;HTU21D;52663;51.038;5.858;2022-10-17T15:39:08;19.85;80.24
65884;HTU21D;52663;51.038;5.858;2022-10-17T15:41:34;19.85;80.26
65884;HTU21D;52663;51.038;5.858;2022-10-17T15:44:00;19.87;80.04
65884;HTU21D;52663;51.038;5.858;2022-10-17T15:46:29;19.86;79.94
65884;HTU21D;52663;51.038;5.858;2022-10-17T15:49:02;19.89;79.69
65884;HTU21D;52663;51.038;5.858;2022-10-17T15:51:29;19.92;79.44
65884;HTU21D;52663;51.038;5.858;2022-10-17T15:53:54;19.95;79.31
65884;HTU21D;52663;51.038;5.858;2022-10-17T15:56:30;19.98;79.09
65884;HTU21D;52663;51.038;5.858;2022-10-17T15:59:05;20.04;78.76
65884;HTU21D;52663;51.038;5.858;2022-10-17T16:02:27;20.06;78.56
65884;HTU21D;52663;51.038;5.858;2022-10-17T16:04:53;20.10;78.50
65884;HTU21D;52663;51.038;5.858;2022-10-17T16:07:24;20.12;78.22
65884;HTU21D;52663;51.038;5.858;2022-10-17T16:09:50;20.11;78.24
65884;HTU21D;52663;51.038;5.858;2022-10-17T16:12:20;20.18;78.17
65884;HTU21D;52663;51.038;5.858;2022-10-17T16:14:47;20.18;78.14
65884;HTU21D;52663;51.038;5.858;2022-10-17T16:17:14;20.24;78.11
65884;HTU21D;52663;51.038;5.858;2022-10-17T16:20:01;20.28;78.18
65884;HTU21D;52663;51.038;5.858;2022-10-17T16:22:30;20.30;77.96
65884;HTU21D;52663;51.038;5.858;2022-10-17T16:24:57;20.31;77.98
65884;HTU21D;52663;51.038;5.858;2022-10-17T16:27:32;20.32;77.89
65884;HTU21D;52663;51.038;5.858;2022-10-17T16:29:58;20.33;77.67
65884;HTU21D;52663;51.038;5.858;2022-10-17T16:32:24;20.35;77.66
65884;HTU21D;52663;51.038;5.858;2022-10-17T16:34:50;20.35;77.51
65884;HTU21D;52663;51.038;5.858;2022-10-17T16:37:16;20.35;77.47
65884;HTU21D;52663;51.038;5.858;2022-10-17T16:39:42;20.36;77.31
65884;HTU21D;52663;51.038;5.858;2022-10-17T16:42:13;20.34;77.25
65884;HTU21D;52663;51.038;5.858;2022-10-17T16:44:39;20.34;77.26
65884;HTU21D;52663;51.038;5.858;2022-10-17T16:47:05;20.33;77.18
65884;HTU21D;52663;51.038;5.858;2022-10-17T16:49:31;20.31;77.15
65884;HTU21D;52663;51.038;5.858;2022-10-17T16:51:56;20.26;77.11
65884;HTU21D;52663;51.038;5.858;2022-10-17T16:54:22;20.22;77.27
65884;HTU21D;52663;51.038;5.858;2022-10-17T16:56:48;20.22;77.42
65884;HTU21D;52663;51.038;5.858;2022-10-17T16:59:15;20.20;77.35
65884;HTU21D;52663;51.038;5.858;2022-10-17T17:01:40;20.13;77.43
65884;HTU21D;52663;51.038;5.858;2022-10-17T17:04:27;20.03;77.63
65884;HTU21D;52663;51.038;5.858;2022-10-17T17:06:55;19.96;77.96
65884;HTU21D;52663;51.038;5.858;2022-10-17T17:09:23;19.89;78.20
65884;HTU21D;52663;51.038;5.858;2022-10-17T17:11:50;19.83;78.34
65884;HTU21D;52663;51.038;5.858;2022-10-17T17:14:15;19.70;78.56
65884;HTU21D;52663;51.038;5.858;2022-10-17T17:16:41;19.58;78.65
65884;HTU21D;52663;51.038;5.858;2022-10-17T17:19:11;19.47;78.95
65884;HTU21D;52663;51.038;5.858;2022-10-17T17:21:38;19.43;78.89
65884;HTU21D;52663;51.038;5.858;2022-10-17T17:24:04;19.36;78.69
65884;HTU21D;52663;51.038;5.858;2022-10-17T17:26:33;19.33;78.65
65884;HTU21D;52663;51.038;5.858;2022-10-17T17:29:02;19.33;78.38